world map with VTUL marked

VTUL - Airport

This information may not be accurate or current and is not valid for navigation or flight planning. No warranty of fitness for any purpose is made or implied.

flag of Thailand

Donate via PayPal

Additional information is available on the NEW Great Circle Mapper

Location
City:  Loei, Loei, Thailand
ICAO / IATA:VTUL / LOE

Details
Type:Airport (Aerodrome, Airfield)
Latitude:17°26'21"N (17.439133)
Longitude:101°43'19"E (101.722064)
Datum:WGS 1984
Elevation:860 ft (262 m)
Runways:1
Longest:6890 × 148 ft (2100 × 45 m)

Time
Timezone:UTC+7 (DST+9)
Local Time:

Weather
METAR:VTUL  041200Z 00000KT 6000 FEW030 27/18 Q1012 NOSIG
TAF:VTUL  041100Z 0412/0512 05005KT 6000 NSC BECMG 0417/0419 3000 BR BECMG 0422/0424 0800 FG BECMG 0501/0503 6000 NSW

Related Locations
Nearby:
Farthest:APE: 12191 mi / 19619 km
San Juan Aposento, ICA, PE

Find:

   beyond  
but within

Other Information
Maps:
Sources:

  


 


Great Circle Mapper   Great Circle Mapper
Great Circle Mapper FAQ   Great Circle Mapper FAQ
  Karl's Home Page
KLSē   KLSē Home
   GC on Facebook
Airlines of the World   Airlines of the World
Donate via PayPal


Copyright © 2004-2019, Karl L. Swartz. All rights reserved.
All trademarks mentioned herein belong to their respective owners.

Please see credits for attribution and copyright information.

Karl Swartz <karl@kls2.com>
  Powered by FreeBSD
Valid HTML 4.01!
Labeled with ICRA
hCard Microformat
Geo Microformat